Time;durP1;ratioP1;P1;durP2;ratioP2;P2;SDS_P1;SDS_P2;PMS_P1;PMS_P2;Temp;Humidity;BMP_temperature;BMP_pressure;BME280_temperature;BME280_humidity;BME280_pressure;Samples;Min_cycle;Max_cycle;Signal;HPM_P1;HPM_P2
2021/12/14 00:00:50;;;;;;;;;;;25.20;49.80;;;;;;5075153;28;1014;-31
2021/12/14 00:03:18;;;;;;;;;;;25.20;48.60;;;;;;5075783;28;1000;-33
2021/12/14 00:05:49;;;;;;;;;;;25.20;48.60;;;;;;5075968;28;972;-33
2021/12/14 00:08:16;;;;;;;;;;;25.20;48.50;;;;;;5075867;28;1027;-31
2021/12/14 00:11:07;;;;;;;;;;;25.20;48.60;;;;;;5075913;28;881;-31
2021/12/14 00:13:50;;;;;;;;;;;25.10;48.60;;;;;;5075832;27;939;-30
2021/12/14 00:16:17;;;;;;;;;;;25.20;48.70;;;;;;5075096;28;1016;-32
2021/12/14 00:18:44;;;;;;;;;;;25.10;48.70;;;;;;5075923;28;984;-32
2021/12/14 00:21:19;;;;;;;;;;;25.10;48.70;;;;;;5075574;28;975;-31
2021/12/14 00:26:31;;;;;;;;;;;25.10;48.60;;;;;;5075398;28;900;-31
2021/12/14 00:29:00;;;;;;;;;;;25.10;48.60;;;;;;5075128;28;948;-33
2021/12/14 00:31:27;;;;;;;;;;;25.10;48.70;;;;;;5076064;28;1874;-31
2021/12/14 00:33:56;;;;;;;;;;;25.10;48.70;;;;;;5076276;27;999;-32
2021/12/14 00:36:23;;;;;;;;;;;25.20;48.60;;;;;;5076348;28;956;-31
2021/12/14 00:38:56;;;;;;;;;;;25.10;48.60;;;;;;5074651;28;1008;-32
2021/12/14 00:41:24;;;;;;;;;;;25.10;48.70;;;;;;5076435;28;947;-33
2021/12/14 00:43:51;;;;;;;;;;;25.10;48.60;;;;;;5076052;28;1019;-30
2021/12/14 00:46:19;;;;;;;;;;;25.10;48.60;;;;;;5076060;28;975;-31
2021/12/14 00:48:46;;;;;;;;;;;25.00;48.70;;;;;;5076103;28;1014;-33
2021/12/14 00:51:13;;;;;;;;;;;25.20;48.60;;;;;;5076425;28;1981;-31
2021/12/14 00:53:41;;;;;;;;;;;25.20;48.50;;;;;;5075909;28;980;-30
2021/12/14 00:56:09;;;;;;;;;;;25.10;48.50;;;;;;5076616;28;1032;-31
2021/12/14 00:58:36;;;;;;;;;;;25.10;48.60;;;;;;5076540;28;999;-31
2021/12/14 01:01:05;;;;;;;;;;;25.00;48.60;;;;;;5076735;28;1162;-31
2021/12/14 01:03:34;;;;;;;;;;;24.90;49.10;;;;;;5077317;28;929;-28
2021/12/14 01:06:01;;;;;;;;;;;24.90;49.00;;;;;;5076992;28;992;-32
2021/12/14 01:08:31;;;;;;;;;;;24.90;48.90;;;;;;5076265;28;784;-33
2021/12/14 01:11:04;;;;;;;;;;;24.70;49.10;;;;;;5076846;28;900;-33
2021/12/14 01:13:32;;;;;;;;;;;24.80;49.30;;;;;;5076156;28;1906;-31
2021/12/14 01:16:02;;;;;;;;;;;24.70;49.40;;;;;;5076785;28;1014;-33
2021/12/14 01:18:44;;;;;;;;;;;24.60;49.40;;;;;;5076694;27;1034;-31
2021/12/14 01:21:20;;;;;;;;;;;24.60;49.50;;;;;;5076909;28;1147;-31
2021/12/14 01:23:47;;;;;;;;;;;24.60;49.70;;;;;;5075970;28;1157;-32
2021/12/14 01:26:17;;;;;;;;;;;24.50;49.80;;;;;;5076535;28;994;-31
2021/12/14 01:28:45;;;;;;;;;;;24.40;50.10;;;;;;5076155;28;1823;-30
2021/12/14 01:31:17;;;;;;;;;;;24.40;50.20;;;;;;5076470;28;995;-31
2021/12/14 01:33:45;;;;;;;;;;;24.30;50.20;;;;;;5076310;28;1918;-32
2021/12/14 01:36:25;;;;;;;;;;;24.40;50.00;;;;;;5076359;28;920;-31
2021/12/14 01:39:10;;;;;;;;;;;24.30;50.30;;;;;;5076296;27;1029;-33
2021/12/14 01:41:37;;;;;;;;;;;24.20;50.30;;;;;;5076519;28;987;-31
2021/12/14 01:44:05;;;;;;;;;;;24.10;50.80;;;;;;5075985;28;924;-31
2021/12/14 01:46:33;;;;;;;;;;;24.10;50.80;;;;;;5076018;28;999;-31
2021/12/14 01:49:05;;;;;;;;;;;24.00;50.90;;;;;;5075205;28;945;-30
2021/12/14 01:51:33;;;;;;;;;;;23.90;51.10;;;;;;5076393;28;1902;-31
2021/12/14 01:54:00;;;;;;;;;;;24.00;51.20;;;;;;5075913;28;1050;-32
2021/12/14 01:56:28;;;;;;;;;;;23.80;51.40;;;;;;5076059;28;979;-31
2021/12/14 01:58:56;;;;;;;;;;;23.80;51.60;;;;;;5075179;27;999;-33
2021/12/14 02:01:25;;;;;;;;;;;23.60;51.70;;;;;;5074906;28;886;-30
2021/12/14 02:03:54;;;;;;;;;;;23.60;52.10;;;;;;5074540;28;982;-31
2021/12/14 02:06:23;;;;;;;;;;;23.60;52.20;;;;;;5075109;28;1014;-33
2021/12/14 02:08:56;;;;;;;;;;;23.60;52.20;;;;;;5074982;28;964;-31
2021/12/14 02:11:23;;;;;;;;;;;23.50;52.10;;;;;;5075045;28;999;-31
2021/12/14 02:13:53;;;;;;;;;;;23.40;52.50;;;;;;5074874;28;1882;-31
2021/12/14 02:16:20;;;;;;;;;;;23.30;52.60;;;;;;5074977;28;964;-31
2021/12/14 02:18:49;;;;;;;;;;;23.40;52.70;;;;;;5074255;28;1008;-32
2021/12/14 02:21:18;;;;;;;;;;;23.30;52.80;;;;;;5073629;28;951;-31
2021/12/14 02:23:46;;;;;;;;;;;23.30;53.10;;;;;;5073749;28;1094;-32
2021/12/14 02:26:15;;;;;;;;;;;23.20;53.00;;;;;;5073195;28;1833;-33
2021/12/14 02:28:42;;;;;;;;;;;23.20;53.10;;;;;;5074123;28;967;-31
2021/12/14 02:31:11;;;;;;;;;;;23.20;53.10;;;;;;5073639;28;1028;-31
2021/12/14 02:33:39;;;;;;;;;;;23.20;53.40;;;;;;5074415;28;1906;-31
2021/12/14 02:36:08;;;;;;;;;;;23.10;53.20;;;;;;5073358;28;1022;-31
2021/12/14 02:38:39;;;;;;;;;;;23.10;53.40;;;;;;5074257;28;939;-31
2021/12/14 02:41:07;;;;;;;;;;;23.10;53.40;;;;;;5074812;28;952;-33
2021/12/14 02:43:35;;;;;;;;;;;23.00;53.60;;;;;;5073855;28;940;-31
2021/12/14 02:46:05;;;;;;;;;;;23.00;53.50;;;;;;5074198;28;962;-31
2021/12/14 02:48:32;;;;;;;;;;;23.00;54.70;;;;;;5073688;28;940;-29
2021/12/14 02:51:05;;;;;;;;;;;23.00;53.70;;;;;;5073802;28;1012;-32
2021/12/14 02:53:32;;;;;;;;;;;22.90;53.70;;;;;;5073657;28;1906;-31
2021/12/14 02:56:00;;;;;;;;;;;22.90;53.80;;;;;;5073962;28;1004;-31
2021/12/14 02:58:27;;;;;;;;;;;22.90;53.80;;;;;;5073671;28;1006;-31
2021/12/14 03:00:56;;;;;;;;;;;22.80;53.90;;;;;;5072194;28;999;-32
2021/12/14 03:03:23;;;;;;;;;;;22.90;54.00;;;;;;5072345;28;1044;-32
2021/12/14 03:05:50;;;;;;;;;;;22.80;53.90;;;;;;5073416;28;991;-31
2021/12/14 03:08:19;;;;;;;;;;;22.80;54.00;;;;;;5072377;27;955;-30
2021/12/14 03:10:59;;;;;;;;;;;22.80;54.00;;;;;;5072521;28;983;-31
2021/12/14 03:13:30;;;;;;;;;;;22.80;54.20;;;;;;5072429;28;1914;-32
2021/12/14 03:15:58;;;;;;;;;;;22.70;54.20;;;;;;5073051;28;1013;-31
2021/12/14 03:18:26;;;;;;;;;;;22.80;54.10;;;;;;5072607;28;912;-31
2021/12/14 03:20:55;;;;;;;;;;;22.70;54.10;;;;;;5073111;28;1212;-34
2021/12/14 03:23:23;;;;;;;;;;;22.70;54.10;;;;;;5072999;28;1031;-31
2021/12/14 03:25:52;;;;;;;;;;;22.80;54.10;;;;;;5073360;28;1006;-32
2021/12/14 03:28:20;;;;;;;;;;;22.70;54.20;;;;;;5073177;28;968;-32
2021/12/14 03:30:53;;;;;;;;;;;22.70;54.20;;;;;;5073320;28;979;-31
2021/12/14 03:33:44;;;;;;;;;;;22.70;54.20;;;;;;5074274;28;1913;-32
2021/12/14 03:36:13;;;;;;;;;;;22.70;54.30;;;;;;5072844;28;1050;-31
2021/12/14 03:38:42;;;;;;;;;;;22.70;54.20;;;;;;5072839;28;987;-32
2021/12/14 03:41:10;;;;;;;;;;;22.70;54.20;;;;;;5073358;28;1332;-32
2021/12/14 03:43:38;;;;;;;;;;;22.70;54.30;;;;;;5073492;28;983;-30
2021/12/14 03:46:07;;;;;;;;;;;22.70;54.20;;;;;;5073222;28;944;-31
2021/12/14 03:48:35;;;;;;;;;;;22.70;54.20;;;;;;5073052;28;967;-32
2021/12/14 03:51:02;;;;;;;;;;;22.60;54.20;;;;;;5073204;28;939;-30
2021/12/14 03:53:29;;;;;;;;;;;22.70;54.20;;;;;;5073016;28;1901;-32
2021/12/14 03:55:57;;;;;;;;;;;22.70;54.20;;;;;;5073561;28;968;-31
2021/12/14 03:58:25;;;;;;;;;;;22.70;54.20;;;;;;5072897;28;937;-32
2021/12/14 04:00:53;;;;;;;;;;;22.70;54.30;;;;;;5072840;28;988;-31
2021/12/14 04:03:22;;;;;;;;;;;22.70;54.30;;;;;;5072688;28;968;-32
2021/12/14 04:05:49;;;;;;;;;;;22.60;54.30;;;;;;5072501;28;983;-31
2021/12/14 04:08:17;;;;;;;;;;;22.70;54.30;;;;;;5073360;28;936;-30
2021/12/14 04:10:46;;;;;;;;;;;22.60;54.30;;;;;;5073158;28;1015;-33
2021/12/14 04:13:14;;;;;;;;;;;22.70;54.30;;;;;;5075871;28;1979;-31
2021/12/14 04:15:42;;;;;;;;;;;22.70;54.20;;;;;;5076884;28;972;-31
2021/12/14 04:18:09;;;;;;;;;;;22.70;54.30;;;;;;5076586;28;903;-31
2021/12/14 04:20:38;;;;;;;;;;;22.60;54.30;;;;;;5076595;28;1765;-31
2021/12/14 04:23:09;;;;;;;;;;;22.70;54.40;;;;;;5075841;28;1144;-30
2021/12/14 04:25:36;;;;;;;;;;;22.70;54.40;;;;;;5076115;28;995;-32
2021/12/14 04:28:05;;;;;;;;;;;22.60;54.30;;;;;;5075770;28;940;-31
2021/12/14 04:30:32;;;;;;;;;;;22.60;54.40;;;;;;5076091;28;869;-31
2021/12/14 04:33:00;;;;;;;;;;;22.60;54.20;;;;;;5075938;28;1902;-31
2021/12/14 04:35:27;;;;;;;;;;;22.70;54.20;;;;;;5076555;28;1055;-31
2021/12/14 04:37:58;;;;;;;;;;;22.70;54.20;;;;;;5076841;28;964;-31
2021/12/14 04:51:53;;;;;;;;;;;22.70;54.20;;;;;;5076946;28;1058;-32
2021/12/14 04:54:17;;;;;;;;;;;22.80;54.20;;;;;;5076423;28;1905;-32
2021/12/14 04:56:45;;;;;;;;;;;22.70;54.20;;;;;;5076885;28;987;-29
2021/12/14 04:59:14;;;;;;;;;;;22.70;54.40;;;;;;5076488;27;1009;-29
2021/12/14 05:01:44;;;;;;;;;;;22.70;54.40;;;;;;5076234;28;1135;-28
2021/12/14 05:04:14;;;;;;;;;;;22.70;54.30;;;;;;5075809;28;987;-29
2021/12/14 05:06:48;;;;;;;;;;;22.80;54.30;;;;;;5076145;28;976;-30
2021/12/14 05:09:22;;;;;;;;;;;22.70;54.30;;;;;;5076385;27;1023;-29
2021/12/14 05:11:52;;;;;;;;;;;22.80;54.30;;;;;;5076326;28;1133;-29
2021/12/14 05:14:19;;;;;;;;;;;22.70;54.40;;;;;;5075909;28;1906;-30
2021/12/14 05:16:46;;;;;;;;;;;22.70;54.30;;;;;;5076416;28;1010;-29
2021/12/14 05:19:13;;;;;;;;;;;22.70;54.40;;;;;;5076302;28;891;-29
2021/12/14 05:21:42;;;;;;;;;;;22.70;54.40;;;;;;5076327;28;996;-28
2021/12/14 05:24:10;;;;;;;;;;;22.70;54.50;;;;;;5074416;28;1085;-30
2021/12/14 05:26:37;;;;;;;;;;;22.70;54.40;;;;;;5075892;28;1076;-28
2021/12/14 05:29:08;;;;;;;;;;;22.60;54.40;;;;;;5074897;27;1028;-28
2021/12/14 05:31:41;;;;;;;;;;;22.70;54.40;;;;;;5073864;28;991;-28
2021/12/14 05:34:07;;;;;;;;;;;22.70;54.50;;;;;;5073905;28;1906;-30
2021/12/14 05:36:34;;;;;;;;;;;22.60;54.40;;;;;;5074707;28;994;-29
2021/12/14 05:39:07;;;;;;;;;;;22.70;54.40;;;;;;5075077;28;996;-30
2021/12/14 05:44:24;;;;;;;;;;;22.80;54.20;;;;;;5074006;28;631;-28
2021/12/14 05:46:52;;;;;;;;;;;22.70;54.40;;;;;;5075898;28;1132;-29
2021/12/14 05:49:20;;;;;;;;;;;22.70;54.40;;;;;;5075023;28;842;-30
2021/12/14 05:51:48;;;;;;;;;;;22.70;54.50;;;;;;5074253;28;993;-29
2021/12/14 05:54:18;;;;;;;;;;;22.70;54.50;;;;;;5073681;28;1914;-29
2021/12/14 05:56:45;;;;;;;;;;;22.70;54.50;;;;;;5073295;28;1117;-29
2021/12/14 05:59:11;;;;;;;;;;;22.70;54.50;;;;;;5073302;28;1061;-30
2021/12/14 06:01:40;;;;;;;;;;;22.70;54.60;;;;;;5071734;28;943;-30
2021/12/14 06:04:07;;;;;;;;;;;22.70;54.60;;;;;;5071938;28;972;-28
2021/12/14 06:06:35;;;;;;;;;;;22.70;54.60;;;;;;5072639;28;912;-29
2021/12/14 06:09:07;;;;;;;;;;;22.70;54.50;;;;;;5072424;28;1000;-29
2021/12/14 06:11:34;;;;;;;;;;;22.70;54.50;;;;;;5071699;28;984;-29
2021/12/14 06:14:01;;;;;;;;;;;22.80;54.30;;;;;;5071928;27;1910;-29
2021/12/14 06:16:29;;;;;;;;;;;22.90;54.20;;;;;;5071911;28;1001;-29
2021/12/14 06:19:11;;;;;;;;;;;22.90;54.10;;;;;;5071443;28;833;-29
2021/12/14 06:21:38;;;;;;;;;;;22.90;54.10;;;;;;5071699;28;1000;-30
2021/12/14 06:24:07;;;;;;;;;;;22.90;54.20;;;;;;5071403;28;1210;-28
2021/12/14 06:26:34;;;;;;;;;;;22.90;54.20;;;;;;5073887;28;1012;-29
2021/12/14 06:29:05;;;;;;;;;;;22.90;54.20;;;;;;5073589;28;1490;-28
2021/12/14 06:31:32;;;;;;;;;;;23.00;54.20;;;;;;5072247;28;944;-28
2021/12/14 06:34:10;;;;;;;;;;;22.90;54.10;;;;;;5070817;28;1986;-29
2021/12/14 06:36:52;;;;;;;;;;;22.90;54.10;;;;;;5071821;28;956;-29
2021/12/14 06:39:19;;;;;;;;;;;23.00;54.20;;;;;;5072028;28;959;-29
2021/12/14 06:41:46;;;;;;;;;;;23.00;54.10;;;;;;5070902;28;1014;-30
2021/12/14 06:44:13;;;;;;;;;;;23.00;54.00;;;;;;5072714;28;1015;-29
2021/12/14 06:46:40;;;;;;;;;;;23.00;54.00;;;;;;5073674;27;1369;-29
2021/12/14 06:49:10;;;;;;;;;;;23.00;54.00;;;;;;5073679;28;1386;-30
2021/12/14 06:51:39;;;;;;;;;;;23.00;54.20;;;;;;5072849;28;1129;-29
2021/12/14 06:54:07;;;;;;;;;;;23.00;54.10;;;;;;5071808;27;1987;-29
2021/12/14 06:56:34;;;;;;;;;;;22.90;54.00;;;;;;5071986;28;899;-30
2021/12/14 06:59:02;;;;;;;;;;;22.90;55.30;;;;;;5070927;28;928;-29
2021/12/14 07:01:30;;;;;;;;;;;22.90;54.20;;;;;;5071296;28;871;-28
2021/12/14 07:03:59;;;;;;;;;;;22.90;54.20;;;;;;5071876;28;920;-29
2021/12/14 07:06:29;;;;;;;;;;;22.90;54.20;;;;;;5072009;28;1029;-29
2021/12/14 07:08:57;;;;;;;;;;;22.90;54.20;;;;;;5070703;28;1022;-32
2021/12/14 07:11:25;;;;;;;;;;;22.90;54.20;;;;;;5071492;28;1008;-31
2021/12/14 07:13:53;;;;;;;;;;;22.90;54.20;;;;;;5070697;28;1983;-29
2021/12/14 07:16:22;;;;;;;;;;;22.90;54.20;;;;;;5071641;28;964;-28
2021/12/14 07:18:51;;;;;;;;;;;22.80;54.20;;;;;;5070859;27;851;-30
2021/12/14 07:21:34;;;;;;;;;;;22.80;54.20;;;;;;5071433;28;1007;-30
2021/12/14 07:24:18;;;;;;;;;;;22.80;54.30;;;;;;5072056;28;980;-29
2021/12/14 07:26:45;;;;;;;;;;;22.80;54.20;;;;;;5071682;28;991;-28
2021/12/14 07:29:12;;;;;;;;;;;22.80;54.30;;;;;;5071302;28;1064;-29
2021/12/14 07:31:42;;;;;;;;;;;22.80;54.30;;;;;;5070961;28;972;-30
2021/12/14 07:34:09;;;;;;;;;;;22.80;54.40;;;;;;5072504;28;1979;-29
2021/12/14 07:36:39;;;;;;;;;;;22.70;54.30;;;;;;5071935;28;1015;-29
2021/12/14 07:39:07;;;;;;;;;;;22.70;54.40;;;;;;5071786;28;984;-28
2021/12/14 07:41:35;;;;;;;;;;;22.80;54.50;;;;;;5070292;28;1033;-29
2021/12/14 07:44:04;;;;;;;;;;;22.70;54.40;;;;;;5070802;28;964;-29
2021/12/14 07:46:36;;;;;;;;;;;22.80;54.50;;;;;;5071102;28;1019;-29
2021/12/14 07:49:05;;;;;;;;;;;22.80;54.40;;;;;;5072734;28;944;-31
2021/12/14 07:51:33;;;;;;;;;;;22.70;54.40;;;;;;5075323;28;979;-29
2021/12/14 07:54:06;;;;;;;;;;;22.70;54.40;;;;;;5074528;28;1902;-30
2021/12/14 07:56:37;;;;;;;;;;;22.70;54.50;;;;;;5074231;28;994;-28
2021/12/14 07:59:09;;;;;;;;;;;22.70;54.50;;;;;;5074575;28;1005;-32
2021/12/14 08:01:36;;;;;;;;;;;22.70;54.50;;;;;;5072996;28;947;-34
2021/12/14 08:04:05;;;;;;;;;;;22.70;54.40;;;;;;5073648;28;936;-30
2021/12/14 08:06:42;;;;;;;;;;;22.70;54.40;;;;;;5073540;28;1564;-29
2021/12/14 08:09:16;;;;;;;;;;;22.70;54.50;;;;;;5073709;28;975;-31
2021/12/14 08:11:47;;;;;;;;;;;22.60;54.40;;;;;;5074265;28;1022;-32
2021/12/14 08:14:16;;;;;;;;;;;22.70;54.50;;;;;;5073462;28;1902;-30
2021/12/14 08:16:45;;;;;;;;;;;22.60;54.30;;;;;;5075071;28;1314;-31
2021/12/14 08:19:16;;;;;;;;;;;22.60;54.30;;;;;;5072621;28;995;-31
2021/12/14 08:21:43;;;;;;;;;;;22.60;54.40;;;;;;5074463;28;1123;-31
2021/12/14 08:24:12;;;;;;;;;;;22.60;54.40;;;;;;5073490;28;1108;-30
2021/12/14 08:26:41;;;;;;;;;;;22.60;54.40;;;;;;5073248;28;1019;-32
2021/12/14 08:29:09;;;;;;;;;;;22.60;54.20;;;;;;5072849;28;868;-30
2021/12/14 08:31:37;;;;;;;;;;;22.70;54.40;;;;;;5073562;28;878;-31
2021/12/14 08:34:05;;;;;;;;;;;22.60;54.40;;;;;;5073406;28;1902;-30
2021/12/14 08:36:36;;;;;;;;;;;22.60;54.40;;;;;;5073851;28;944;-33
2021/12/14 08:39:07;;;;;;;;;;;22.60;54.40;;;;;;5073537;28;909;-32
2021/12/14 08:41:35;;;;;;;;;;;22.60;54.40;;;;;;5073306;28;977;-30
2021/12/14 08:44:09;;;;;;;;;;;22.60;54.30;;;;;;5073032;27;1003;-30
2021/12/14 08:46:36;;;;;;;;;;;22.60;54.30;;;;;;5073244;28;1012;-30
2021/12/14 08:49:06;;;;;;;;;;;22.60;54.40;;;;;;5072890;28;940;-31
2021/12/14 08:51:35;;;;;;;;;;;22.60;54.40;;;;;;5073416;28;1010;-31
2021/12/14 08:54:04;;;;;;;;;;;22.60;54.30;;;;;;5073860;28;1981;-30
2021/12/14 08:56:33;;;;;;;;;;;22.60;54.30;;;;;;5074778;28;979;-34
2021/12/14 08:59:02;;;;;;;;;;;22.60;54.40;;;;;;5072028;28;984;-32
2021/12/14 09:01:30;;;;;;;;;;;22.60;54.30;;;;;;5073951;28;980;-32
2021/12/14 09:03:58;;;;;;;;;;;22.60;54.40;;;;;;5073580;28;944;-31
2021/12/14 09:06:30;;;;;;;;;;;22.60;54.40;;;;;;5074362;28;1002;-33
2021/12/14 09:08:58;;;;;;;;;;;22.50;54.30;;;;;;5073404;28;984;-32
2021/12/14 09:11:28;;;;;;;;;;;22.60;54.40;;;;;;5074711;28;972;-31
2021/12/14 09:13:54;;;;;;;;;;;22.60;54.40;;;;;;5073778;28;1875;-32
2021/12/14 09:16:25;;;;;;;;;;;22.50;54.30;;;;;;5074004;28;1054;-32
2021/12/14 09:18:53;;;;;;;;;;;22.50;54.50;;;;;;5073755;28;876;-30
2021/12/14 09:21:23;;;;;;;;;;;22.50;54.50;;;;;;5073548;28;939;-31
2021/12/14 09:23:51;;;;;;;;;;;22.50;54.50;;;;;;5073240;28;1160;-33
2021/12/14 09:26:20;;;;;;;;;;;22.50;54.50;;;;;;5074401;28;866;-28
2021/12/14 09:28:48;;;;;;;;;;;22.50;54.50;;;;;;5072916;28;932;-30
2021/12/14 09:31:16;;;;;;;;;;;22.50;54.40;;;;;;5073724;28;1008;-28
2021/12/14 09:33:44;;;;;;;;;;;22.50;54.30;;;;;;5073991;28;987;-29
2021/12/14 09:36:13;;;;;;;;;;;22.50;54.50;;;;;;5072735;28;1974;-29
2021/12/14 09:38:41;;;;;;;;;;;22.50;54.40;;;;;;5073481;28;952;-29
2021/12/14 09:41:09;;;;;;;;;;;22.50;54.40;;;;;;5073305;28;1092;-28
2021/12/14 09:43:36;;;;;;;;;;;22.50;54.40;;;;;;5073906;28;976;-31
2021/12/14 09:46:04;;;;;;;;;;;22.40;54.30;;;;;;5073497;28;927;-32
2021/12/14 09:48:34;;;;;;;;;;;22.50;54.20;;;;;;5073547;28;900;-32
2021/12/14 09:51:07;;;;;;;;;;;22.50;54.30;;;;;;5073112;28;1010;-30
2021/12/14 09:53:35;;;;;;;;;;;22.50;54.30;;;;;;5072959;28;992;-29
2021/12/14 09:56:03;;;;;;;;;;;22.40;54.30;;;;;;5071973;28;1891;-27
2021/12/14 09:58:32;;;;;;;;;;;22.50;54.40;;;;;;5072309;28;932;-30
2021/12/14 10:01:04;;;;;;;;;;;22.40;54.20;;;;;;5072733;28;1000;-28
2021/12/14 10:03:31;;;;;;;;;;;22.40;54.30;;;;;;5071780;27;951;-28
2021/12/14 10:05:59;;;;;;;;;;;22.50;54.30;;;;;;5070759;28;940;-29
2021/12/14 10:08:31;;;;;;;;;;;22.50;54.30;;;;;;5071397;28;924;-31
2021/12/14 10:11:04;;;;;;;;;;;22.50;54.20;;;;;;5071403;28;931;-31
2021/12/14 10:13:31;;;;;;;;;;;22.50;54.40;;;;;;5071670;27;962;-32
2021/12/14 10:15:59;;;;;;;;;;;22.40;54.20;;;;;;5070973;28;1992;-32
2021/12/14 10:18:28;;;;;;;;;;;22.40;54.20;;;;;;5071597;28;666;-34
2021/12/14 10:20:57;;;;;;;;;;;22.40;54.40;;;;;;5072017;28;1023;-32
2021/12/14 10:23:25;;;;;;;;;;;22.40;54.40;;;;;;5071719;28;1101;-31
2021/12/14 10:25:53;;;;;;;;;;;22.40;54.20;;;;;;5071785;28;964;-32
2021/12/14 10:28:20;;;;;;;;;;;22.40;54.40;;;;;;5072328;28;935;-32
2021/12/14 10:30:54;;;;;;;;;;;22.40;54.30;;;;;;5071183;28;1011;-32
2021/12/14 10:33:21;;;;;;;;;;;22.50;54.30;;;;;;5071985;28;1073;-34
2021/12/14 10:35:52;;;;;;;;;;;22.40;54.20;;;;;;5070416;28;1893;-31
2021/12/14 10:38:26;;;;;;;;;;;22.40;54.10;;;;;;5071961;27;1015;-31
2021/12/14 10:43:41;;;;;;;;;;;22.40;54.20;;;;;;5072498;28;610;-31
2021/12/14 10:46:10;;;;;;;;;;;22.50;54.20;;;;;;5071150;28;1007;-31
2021/12/14 10:48:39;;;;;;;;;;;22.50;54.20;;;;;;5070267;28;932;-32
2021/12/14 10:51:07;;;;;;;;;;;22.50;54.30;;;;;;5070022;28;1014;-33
2021/12/14 10:53:34;;;;;;;;;;;22.50;54.30;;;;;;5070968;28;1007;-31
2021/12/14 10:56:05;;;;;;;;;;;22.50;54.20;;;;;;5071863;28;1910;-33
2021/12/14 10:58:32;;;;;;;;;;;22.40;54.30;;;;;;5071094;28;1031;-32
2021/12/14 11:01:00;;;;;;;;;;;22.40;54.30;;;;;;5071064;28;1042;-32
2021/12/14 11:03:29;;;;;;;;;;;22.50;54.30;;;;;;5070190;28;1011;-33
2021/12/14 11:05:57;;;;;;;;;;;22.40;54.20;;;;;;5070770;28;1019;-31
2021/12/14 11:08:45;;;;;;;;;;;22.40;54.20;;;;;;5071317;28;999;-34
2021/12/14 11:11:15;;;;;;;;;;;22.50;54.40;;;;;;5070185;28;1063;-32
2021/12/14 11:13:45;;;;;;;;;;;22.40;54.30;;;;;;5070277;28;939;-35
2021/12/14 11:16:21;;;;;;;;;;;22.40;54.10;;;;;;5069943;28;1996;-29
2021/12/14 11:18:48;;;;;;;;;;;22.40;54.30;;;;;;5070345;28;911;-30
2021/12/14 11:21:18;;;;;;;;;;;22.40;54.20;;;;;;5069504;28;992;-31
2021/12/14 11:23:47;;;;;;;;;;;22.40;54.20;;;;;;5073029;28;1271;-29
2021/12/14 11:26:16;;;;;;;;;;;22.40;54.20;;;;;;5072914;28;1195;-28
2021/12/14 11:28:43;;;;;;;;;;;22.40;54.30;;;;;;5073807;28;896;-31
2021/12/14 11:31:13;;;;;;;;;;;22.40;54.20;;;;;;5072260;28;1004;-28
2021/12/14 11:33:43;;;;;;;;;;;22.40;54.30;;;;;;5073676;27;1027;-29
2021/12/14 11:36:13;;;;;;;;;;;22.40;54.00;;;;;;5073290;28;1987;-28
2021/12/14 11:38:42;;;;;;;;;;;22.40;54.10;;;;;;5072820;28;946;-28
2021/12/14 11:41:23;;;;;;;;;;;22.40;54.20;;;;;;5071913;27;887;-30
2021/12/14 11:43:54;;;;;;;;;;;22.40;54.30;;;;;;5073450;27;1051;-28
2021/12/14 11:46:21;;;;;;;;;;;22.40;54.10;;;;;;5071638;28;1021;-29
2021/12/14 11:48:48;;;;;;;;;;;22.40;54.20;;;;;;5071647;28;947;-27
2021/12/14 11:51:15;;;;;;;;;;;22.40;54.40;;;;;;5072840;28;1039;-30
2021/12/14 11:53:47;;;;;;;;;;;22.40;54.40;;;;;;5071498;28;1742;-29
2021/12/14 11:56:15;;;;;;;;;;;22.50;54.40;;;;;;5074198;28;1902;-29
2021/12/14 11:58:44;;;;;;;;;;;22.50;54.30;;;;;;5074414;27;1106;-28
2021/12/14 12:01:14;;;;;;;;;;;22.40;54.20;;;;;;5071755;27;1022;-28
2021/12/14 12:03:43;;;;;;;;;;;22.40;54.00;;;;;;5069839;27;936;-30
2021/12/14 12:06:24;;;;;;;;;;;22.40;54.20;;;;;;5067112;27;999;-30
2021/12/14 12:11:41;;;;;;;;;;;22.40;54.00;;;;;;5071636;28;932;-34
2021/12/14 12:14:18;;;;;;;;;;;22.40;54.20;;;;;;5071432;27;863;-32
2021/12/14 12:16:46;;;;;;;;;;;22.40;54.20;;;;;;5068973;28;1959;-31
2021/12/14 12:19:14;;;;;;;;;;;22.40;54.20;;;;;;5072803;27;871;-31
2021/12/14 12:21:42;;;;;;;;;;;22.40;54.30;;;;;;5073802;28;986;-32
2021/12/14 12:24:24;;;;;;;;;;;22.40;54.20;;;;;;5069943;27;1050;-32
2021/12/14 12:26:51;;;;;;;;;;;22.50;54.20;;;;;;5075303;27;1603;-32
2021/12/14 12:29:26;;;;;;;;;;;22.40;54.20;;;;;;5071795;27;1656;-32
2021/12/14 12:32:06;;;;;;;;;;;22.40;54.10;;;;;;5073428;27;997;-32
2021/12/14 12:34:34;;;;;;;;;;;22.40;54.20;;;;;;5067721;27;979;-32
2021/12/14 12:37:03;;;;;;;;;;;22.40;54.20;;;;;;5072146;28;1909;-32
2021/12/14 12:39:31;;;;;;;;;;;22.40;54.20;;;;;;5074140;27;1860;-32
2021/12/14 12:42:00;;;;;;;;;;;22.40;54.20;;;;;;5073559;27;991;-32
2021/12/14 12:44:27;;;;;;;;;;;22.40;54.00;;;;;;5070401;27;1055;-33
2021/12/14 12:46:58;;;;;;;;;;;22.50;54.10;;;;;;5071188;27;934;-31
2021/12/14 12:49:25;;;;;;;;;;;22.40;54.10;;;;;;5073360;28;987;-31
2021/12/14 12:52:05;;;;;;;;;;;22.50;54.00;;;;;;5073216;27;1010;-31
2021/12/14 12:54:35;;;;;;;;;;;22.40;54.20;;;;;;5069210;27;991;-32
2021/12/14 12:57:31;;;;;;;;;;;22.40;54.20;;;;;;5071144;28;1988;-30
2021/12/14 13:00:00;;;;;;;;;;;22.40;53.90;;;;;;5074036;28;967;-32
2021/12/14 13:02:30;;;;;;;;;;;22.40;54.10;;;;;;5072754;28;1862;-31
2021/12/14 13:04:59;;;;;;;;;;;22.40;54.10;;;;;;5071481;27;1011;-30
2021/12/14 13:07:34;;;;;;;;;;;22.40;54.20;;;;;;5071055;28;957;-33
2021/12/14 13:10:06;;;;;;;;;;;22.40;54.20;;;;;;5072815;27;994;-31
2021/12/14 13:12:41;;;;;;;;;;;22.40;54.20;;;;;;5071353;28;1011;-31
2021/12/14 13:15:23;;;;;;;;;;;22.40;54.20;;;;;;5066273;28;1922;-32
2021/12/14 13:17:51;;;;;;;;;;;22.40;54.20;;;;;;5072101;27;1827;-31
2021/12/14 13:20:18;;;;;;;;;;;22.40;54.10;;;;;;5070272;28;1021;-31
2021/12/14 13:22:47;;;;;;;;;;;22.30;54.20;;;;;;5066897;28;1262;-32
2021/12/14 13:25:14;;;;;;;;;;;22.40;54.30;;;;;;5060731;27;995;-30
2021/12/14 13:27:42;;;;;;;;;;;22.40;54.20;;;;;;5065693;27;1038;-30
2021/12/14 13:30:11;;;;;;;;;;;22.50;54.20;;;;;;5066113;27;1019;-32
2021/12/14 13:32:39;;;;;;;;;;;22.40;54.20;;;;;;5064899;27;1035;-32
2021/12/14 13:35:09;;;;;;;;;;;22.40;54.20;;;;;;5048793;27;1028;-31
2021/12/14 13:37:38;;;;;;;;;;;22.40;54.30;;;;;;5068563;27;1114;-33
2021/12/14 13:40:07;;;;;;;;;;;22.40;54.20;;;;;;5068134;27;1480;-30
2021/12/14 13:42:36;;;;;;;;;;;22.40;54.00;;;;;;5066218;28;880;-30
2021/12/14 13:45:05;;;;;;;;;;;22.40;54.20;;;;;;5066059;27;998;-32
2021/12/14 13:47:32;;;;;;;;;;;22.40;54.10;;;;;;5066516;28;917;-30
2021/12/14 13:50:00;;;;;;;;;;;22.40;54.20;;;;;;5062414;27;1133;-32
2021/12/14 13:52:28;;;;;;;;;;;22.40;54.10;;;;;;5053593;27;995;-33
2021/12/14 13:55:19;;;;;;;;;;;22.40;54.00;;;;;;5063892;28;1000;-33
2021/12/14 13:57:47;;;;;;;;;;;22.30;54.10;;;;;;5072503;28;1284;-31
2021/12/14 14:00:16;;;;;;;;;;;22.30;54.20;;;;;;5068406;27;971;-32
2021/12/14 14:02:43;;;;;;;;;;;22.30;54.30;;;;;;5054792;27;967;-31
2021/12/14 14:05:10;;;;;;;;;;;22.30;54.30;;;;;;5046742;27;1056;-34
2021/12/14 14:07:38;;;;;;;;;;;22.30;54.20;;;;;;5069743;28;976;-32
2021/12/14 14:10:05;;;;;;;;;;;22.30;54.20;;;;;;5068929;28;941;-32
2021/12/14 14:12:42;;;;;;;;;;;22.40;54.20;;;;;;5069712;27;988;-30
2021/12/14 14:15:13;;;;;;;;;;;22.40;54.20;;;;;;5040623;27;982;-31
2021/12/14 14:17:46;;;;;;;;;;;22.40;54.10;;;;;;5057750;28;1972;-32
2021/12/14 14:20:16;;;;;;;;;;;22.40;54.20;;;;;;5046567;27;911;-30
2021/12/14 14:22:44;;;;;;;;;;;22.40;54.20;;;;;;5062287;28;1042;-31
2021/12/14 14:25:13;;;;;;;;;;;22.40;54.10;;;;;;5065449;27;1017;-30
2021/12/14 14:27:41;;;;;;;;;;;22.40;54.10;;;;;;5071612;27;999;-31
2021/12/14 14:30:34;;;;;;;;;;;22.40;54.20;;;;;;5061393;27;967;-31
2021/12/14 14:33:09;;;;;;;;;;;22.40;54.10;;;;;;5070531;28;1233;-31
2021/12/14 14:35:40;;;;;;;;;;;22.40;54.10;;;;;;5046008;27;1906;-32
2021/12/14 14:38:22;;;;;;;;;;;22.40;54.10;;;;;;5056491;27;1347;-32
2021/12/14 14:40:51;;;;;;;;;;;22.30;54.10;;;;;;5073452;27;1197;-31
2021/12/14 14:43:18;;;;;;;;;;;22.30;54.20;;;;;;5070791;28;877;-30
2021/12/14 14:45:44;;;;;;;;;;;22.30;54.20;;;;;;5064919;27;1779;-29
2021/12/14 14:48:18;;;;;;;;;;;22.30;54.20;;;;;;5071087;28;1003;-31
2021/12/14 14:50:44;;;;;;;;;;;22.30;54.20;;;;;;5070632;28;979;-34
2021/12/14 14:53:15;;;;;;;;;;;22.40;54.20;;;;;;5071527;28;919;-30
2021/12/14 14:55:45;;;;;;;;;;;22.30;54.20;;;;;;5066987;27;1984;-30
2021/12/14 14:58:15;;;;;;;;;;;22.40;54.10;;;;;;5071120;27;1062;-33
2021/12/14 15:00:44;;;;;;;;;;;22.40;54.10;;;;;;5071720;28;1003;-31
2021/12/14 15:03:19;;;;;;;;;;;22.40;54.10;;;;;;5071909;28;929;-31
2021/12/14 15:05:49;;;;;;;;;;;22.30;54.10;;;;;;5067379;28;939;-34
2021/12/14 15:08:21;;;;;;;;;;;22.30;54.10;;;;;;5070432;27;971;-30
2021/12/14 15:10:49;;;;;;;;;;;22.30;54.10;;;;;;5070492;28;1010;-31
2021/12/14 15:13:27;;;;;;;;;;;22.40;54.20;;;;;;5071408;27;1002;-33